createdAt,value
2023-05-22T00:08:40.056Z,11.6
2023-05-22T00:18:41.541Z,11.6
2023-05-22T00:28:43.056Z,11.1
2023-05-22T00:38:44.222Z,11.4
2023-05-22T00:48:45.413Z,11.6
2023-05-22T00:58:46.763Z,11.7
2023-05-22T01:08:48.143Z,11.1
2023-05-22T01:18:49.521Z,11
2023-05-22T01:28:50.843Z,11.4
2023-05-22T01:38:52.086Z,11.3
2023-05-22T01:48:53.511Z,11.1
2023-05-22T01:58:54.785Z,11.1
2023-05-22T02:08:56.120Z,10.9
2023-05-22T02:18:57.474Z,10.6
2023-05-22T02:28:58.778Z,10.9
2023-05-22T02:39:02.624Z,10.8
2023-05-22T02:49:00.867Z,10.1
2023-05-22T02:59:01.885Z,10.3
2023-05-22T03:08:07.287Z,10
2023-05-22T03:18:08.332Z,9.9
2023-05-22T03:28:09.293Z,10.4
2023-05-22T03:38:10.521Z,10.3
2023-05-22T03:48:21.581Z,10.9
2023-05-22T03:58:24.402Z,11.1
2023-05-22T04:08:26.356Z,11.4
2023-05-22T04:18:34.932Z,13.2
2023-05-22T04:28:50.332Z,2.3
2023-05-22T04:39:04.077Z,13.3
2023-05-22T04:49:18.313Z,12.6
2023-05-22T04:59:39.469Z,0.9
2023-05-22T05:09:58.852Z,0.6
2023-05-22T05:20:18.581Z,2.1
2023-05-22T05:30:38.632Z,3.3
2023-05-22T05:40:56.101Z,17.3
2023-05-22T05:51:12.601Z,18.5
2023-05-22T06:01:28.813Z,6.3
2023-05-22T06:11:45.709Z,20.1
2023-05-22T06:22:00.428Z,17.7
2023-05-22T06:32:15.509Z,18.9
2023-05-22T06:42:29.209Z,21.4
2023-05-22T06:52:46.365Z,21.8
2023-05-22T07:03:02.975Z,2.6
2023-05-22T07:13:20.570Z,9.1
2023-05-22T07:23:35.797Z,22.1
2023-05-22T07:33:49.612Z,22.3
2023-05-22T07:55:01.049Z,24.7
2023-05-22T08:05:15.647Z,19.6
2023-05-22T08:15:30.834Z,26.2
2023-05-22T08:25:47.083Z,24.8
2023-05-22T08:36:04.761Z,24.1
2023-05-22T08:46:21.594Z,26.4
2023-05-22T08:56:42.761Z,16.8
2023-05-22T09:08:21.417Z,14
2023-05-22T09:18:38.038Z,24.2
2023-05-22T09:28:56.926Z,13.1
2023-05-22T09:39:16.617Z,11.4
2023-05-22T09:49:34.142Z,15.9
2023-05-22T09:59:48.036Z,21
2023-05-22T10:10:07.886Z,16.8
2023-05-22T10:20:24.056Z,11.3
2023-05-22T10:30:40.778Z,21.4
2023-05-22T10:40:45.501Z,20.8
2023-05-22T10:50:48.839Z,16.4
2023-05-22T11:00:58.167Z,14.3
2023-05-22T11:11:09.312Z,17.3
2023-05-22T11:21:19.728Z,17.5
2023-05-22T11:31:20.134Z,20
2023-05-22T11:41:19.735Z,13.9
2023-05-22T11:51:18.976Z,12.6
2023-05-22T12:01:20.174Z,10.6
2023-05-22T12:11:21.182Z,13.4
2023-05-22T12:21:22.106Z,12.9
2023-05-22T12:31:24.014Z,13.8
2023-05-22T12:41:30.630Z,12.3
2023-05-22T12:51:39.018Z,9.6
2023-05-22T13:01:44.837Z,14
2023-05-22T13:11:55.061Z,11.4
2023-05-22T13:22:02.839Z,16.5
2023-05-22T13:32:08.439Z,17.3
2023-05-22T13:42:11.290Z,14.5
2023-05-22T13:52:17.361Z,13.5
2023-05-22T14:02:23.210Z,16.9
2023-05-22T14:12:30.392Z,17.8
2023-05-22T14:22:44.719Z,22.2
2023-05-22T14:32:36.829Z,15.8
2023-05-22T14:42:38.791Z,18
2023-05-22T14:52:39.470Z,19.6
2023-05-22T15:08:05.579Z,19.1
2023-05-22T15:18:05.062Z,18.6
2023-05-22T15:28:07.739Z,17.9
2023-05-22T15:38:03.650Z,17.3
2023-05-22T15:48:03.739Z,16.4
2023-05-22T15:58:04.382Z,13.1
2023-05-22T16:08:06.371Z,13.6
2023-05-22T16:18:08.316Z,13.4
2023-05-22T16:28:10.641Z,14.4
2023-05-22T16:38:11.990Z,16
2023-05-22T16:48:13.402Z,15.8
2023-05-22T16:58:14.977Z,15.1
2023-05-22T17:08:15.133Z,12.6
2023-05-22T17:18:13.492Z,14.4
2023-05-22T17:28:14.906Z,13.1
2023-05-22T17:38:13.866Z,13.9
2023-05-22T17:48:14.742Z,11.7
2023-05-22T17:58:13.384Z,13.6
2023-05-22T18:08:12.667Z,13.8
2023-05-22T18:18:13.033Z,11
2023-05-22T18:28:11.736Z,10.8
2023-05-22T18:38:11.343Z,13.6
2023-05-22T18:48:11.109Z,12.5
2023-05-22T18:58:10.582Z,12.7
2023-05-22T19:08:10.074Z,12.8
2023-05-22T19:18:10.135Z,12.8
2023-05-22T19:28:10.372Z,12.9
2023-05-22T19:38:09.624Z,10.9
2023-05-22T19:48:09.560Z,12.3
2023-05-22T19:58:09.121Z,12.5
2023-05-22T20:08:08.765Z,12.9
2023-05-22T20:18:08.357Z,12.7
2023-05-22T20:28:07.816Z,10.1
2023-05-22T20:38:06.995Z,12.6
2023-05-22T20:48:07.059Z,10.2
2023-05-22T20:58:06.323Z,12.5
2023-05-22T21:08:04.384Z,11.8
2023-05-22T21:18:03.771Z,11.5
2023-05-22T21:28:03.633Z,11.6
2023-05-22T21:38:02.745Z,11.4
2023-05-22T21:48:02.596Z,11.8
2023-05-22T21:58:02.422Z,11.6
2023-05-22T22:08:02.203Z,11.4
2023-05-22T22:18:03.092Z,8.9
2023-05-22T22:28:04.101Z,10.9
2023-05-22T22:38:04.761Z,10.9
2023-05-22T22:48:06.013Z,10.8
2023-05-22T22:58:06.737Z,10.6
2023-05-22T23:08:06.349Z,10.7
2023-05-22T23:18:06.012Z,10.4
2023-05-22T23:28:05.275Z,10.4
2023-05-22T23:38:04.830Z,8.1
2023-05-22T23:48:04.644Z,10.3
2023-05-22T23:58:04.923Z,10.6
